Pompeys Pillar, MT (59064)

7:51 AM MST on December 25, 2014 (GMT -0700)
Lockwood | Change Station
CLOSE
Current Station
Personal Weather Station
Location: Billings, MT
Elevation: 3202 ft
Nearby Weather Stations
Active Advisory: Winter Weather Advisory Active Notice: Local Storm Report

Elev 3202 ft 45.82 °N, 108.39 °W | Updated 45 seconds ago

Snow
Snow
25.8 °F
Feels Like 26 °F
N
0.0
Wind Variable Wind from ENE
Gusts 0.0 mph

Today
High -- | Low -- °F
--% Chance of Precip.
Yesterday
High -- | Low -- °F
Precip. -- in
7:52 AM 4:31 PM
Waxing Crescent, 17% visible
Pressure 29.84 in
Visibility 1.5 miles
Clouds Few 700 ft
Mostly Cloudy 1600 ft
Overcast 2300 ft
Windchill 26 °F
Dew Point 21 °F
Humidity 81%
Rainfall 0.00 in
Snow Depth Not available.
UV 0 out of 12
Pollen .10 out of 12
Air Quality Not available.
Flu Activity Not available.
METAR KBIL 251353Z 03010KT 1 1/2SM -SN BR FEW007 BKN016 OVC023 M03/M05 A2976 RMK AO2 SLP104 P0001 T10331050 $

More Conditions Fewer Conditions

Pressure 29.84 in
Visibility 1.5 miles
Clouds Few 700 ft
Mostly Cloudy 1600 ft
Overcast 2300 ft
Windchill 26 °F
Dew Point 21 °F
Humidity 81%
Rainfall 0.00 in
Snow Depth Not available.
UV 0 out of 12
Pollen .10 out of 12
Air Quality Not available.
Flu Activity Not available.
METAR KBIL 251353Z 03010KT 1 1/2SM -SN BR FEW007 BKN016 OVC023 M03/M05 A2976 RMK AO2 SLP104 P0001 T10331050 $

More Conditions Fewer Conditions

10-Day Weather Forecast

Almanac

Astronomy

Dec. 25, 2014 Rise Set
Actual Time
Civil Twilight
Nautical Twilight
Astronomical Twilight
Moon
Length of Visible Light
Length of Day
Tomorrow will be .
, % of the Moon is Illuminated

Today's Extremes

State Highs State Lows

Community

WunderPhotos

Upload Photos

1,780,283 photos uploaded!

WunderBlogs® & News

Nearby

Air Quality

  Air Quality AQ Index Pollutant
Not available.

Snow Depth

Station Depth Elevation

Earthquake Activity

City Distance Mag. Time & Date
Minimum magnitude displayed is 2.5.

Coastal Water Temperatures

Place Temperature

Nearby Weather Stations